sensor_id;sensor_type;location;lat;lon;timestamp;pressure;altitude;pressure_sealevel;temperature;humidity
3668;BME280;24099;47.102;15.440;2023-05-22T00:01:21;97197.50;;;12.83;100.00
3668;BME280;24099;47.102;15.440;2023-05-22T00:03:51;97190.50;;;12.69;100.00
3668;BME280;24099;47.102;15.440;2023-05-22T00:06:20;97189.25;;;12.65;100.00
3668;BME280;24099;47.102;15.440;2023-05-22T00:08:48;97193.28;;;12.61;100.00
3668;BME280;24099;47.102;15.440;2023-05-22T00:11:15;97190.28;;;12.64;100.00
3668;BME280;24099;47.102;15.440;2023-05-22T00:13:43;97193.91;;;12.63;100.00
3668;BME280;24099;47.102;15.440;2023-05-22T00:16:12;97193.16;;;12.69;100.00
3668;BME280;24099;47.102;15.440;2023-05-22T00:18:40;97192.00;;;12.78;100.00
3668;BME280;24099;47.102;15.440;2023-05-22T00:21:08;97181.00;;;12.74;100.00
3668;BME280;24099;47.102;15.440;2023-05-22T00:23:36;97187.88;;;12.69;100.00
3668;BME280;24099;47.102;15.440;2023-05-22T00:26:05;97181.53;;;12.63;100.00
3668;BME280;24099;47.102;15.440;2023-05-22T00:28:33;97174.81;;;12.61;100.00
3668;BME280;24099;47.102;15.440;2023-05-22T00:31:04;97178.44;;;12.53;100.00
3668;BME280;24099;47.102;15.440;2023-05-22T00:33:35;97174.16;;;12.52;100.00
3668;BME280;24099;47.102;15.440;2023-05-22T00:36:04;97170.91;;;12.50;100.00
3668;BME280;24099;47.102;15.440;2023-05-22T00:38:33;97173.50;;;12.43;100.00
3668;BME280;24099;47.102;15.440;2023-05-22T00:41:06;97160.28;;;12.37;100.00
3668;BME280;24099;47.102;15.440;2023-05-22T00:43:33;97163.31;;;12.40;100.00
3668;BME280;24099;47.102;15.440;2023-05-22T00:46:01;97167.00;;;12.46;100.00
3668;BME280;24099;47.102;15.440;2023-05-22T00:48:35;97158.66;;;12.42;100.00
3668;BME280;24099;47.102;15.440;2023-05-22T00:51:05;97156.41;;;12.39;100.00
3668;BME280;24099;47.102;15.440;2023-05-22T00:53:35;97161.69;;;12.39;100.00
3668;BME280;24099;47.102;15.440;2023-05-22T00:56:06;97149.91;;;12.35;100.00
3668;BME280;24099;47.102;15.440;2023-05-22T00:58:37;97152.34;;;12.37;100.00
3668;BME280;24099;47.102;15.440;2023-05-22T01:01:05;97156.41;;;12.39;100.00
3668;BME280;24099;47.102;15.440;2023-05-22T01:03:37;97131.00;;;12.32;100.00
3668;BME280;24099;47.102;15.440;2023-05-22T01:06:14;97148.09;;;12.36;100.00
3668;BME280;24099;47.102;15.440;2023-05-22T01:08:43;97147.22;;;12.29;100.00
3668;BME280;24099;47.102;15.440;2023-05-22T01:11:15;97154.69;;;12.25;100.00
3668;BME280;24099;47.102;15.440;2023-05-22T01:13:52;97146.53;;;12.20;100.00
3668;BME280;24099;47.102;15.440;2023-05-22T01:16:29;97149.78;;;12.22;100.00
3668;BME280;24099;47.102;15.440;2023-05-22T01:19:08;97157.53;;;12.24;100.00
3668;BME280;24099;47.102;15.440;2023-05-22T01:21:51;97147.78;;;12.24;100.00
3668;BME280;24099;47.102;15.440;2023-05-22T01:24:52;97157.78;;;12.29;100.00
3668;BME280;24099;47.102;15.440;2023-05-22T01:27:57;97163.72;;;12.37;100.00
3668;BME280;24099;47.102;15.440;2023-05-22T01:30:49;97165.97;;;12.40;100.00
3668;BME280;24099;47.102;15.440;2023-05-22T01:33:19;97181.16;;;12.66;100.00
3668;BME280;24099;47.102;15.440;2023-05-22T01:35:51;97186.44;;;12.66;100.00
3668;BME280;24099;47.102;15.440;2023-05-22T01:38:21;97196.13;;;12.59;100.00
3668;BME280;24099;47.102;15.440;2023-05-22T01:40:49;97177.00;;;12.51;100.00
3668;BME280;24099;47.102;15.440;2023-05-22T01:43:17;97183.41;;;12.69;100.00
3668;BME280;24099;47.102;15.440;2023-05-22T01:45:48;97180.47;;;12.92;100.00
3668;BME280;24099;47.102;15.440;2023-05-22T01:48:16;97181.00;;;12.74;100.00
3668;BME280;24099;47.102;15.440;2023-05-22T01:50:47;97182.16;;;12.65;100.00
3668;BME280;24099;47.102;15.440;2023-05-22T01:53:26;97178.06;;;12.63;100.00
3668;BME280;24099;47.102;15.440;2023-05-22T01:56:00;97182.84;;;12.74;100.00
3668;BME280;24099;47.102;15.440;2023-05-22T01:58:37;97184.38;;;12.62;100.00
3668;BME280;24099;47.102;15.440;2023-05-22T02:01:11;97171.56;;;12.59;100.00
3668;BME280;24099;47.102;15.440;2023-05-22T02:03:41;97162.75;;;12.45;100.00
3668;BME280;24099;47.102;15.440;2023-05-22T02:06:12;97172.78;;;12.28;100.00
3668;BME280;24099;47.102;15.440;2023-05-22T02:08:42;97164.13;;;12.41;100.00
3668;BME280;24099;47.102;15.440;2023-05-22T02:11:20;97163.19;;;12.49;100.00
3668;BME280;24099;47.102;15.440;2023-05-22T02:13:49;97167.63;;;12.48;100.00
3668;BME280;24099;47.102;15.440;2023-05-22T02:16:20;97160.47;;;12.35;100.00
3668;BME280;24099;47.102;15.440;2023-05-22T02:18:49;97160.84;;;12.32;100.00
3668;BME280;24099;47.102;15.440;2023-05-22T02:21:23;97148.47;;;12.33;100.00
3668;BME280;24099;47.102;15.440;2023-05-22T02:23:54;97153.75;;;12.39;100.00
3668;BME280;24099;47.102;15.440;2023-05-22T02:26:21;97141.81;;;12.43;100.00
3668;BME280;24099;47.102;15.440;2023-05-22T02:28:49;97139.50;;;12.27;100.00
3668;BME280;24099;47.102;15.440;2023-05-22T02:31:27;97142.03;;;12.14;100.00
3668;BME280;24099;47.102;15.440;2023-05-22T02:33:56;97145.97;;;12.25;100.00
3668;BME280;24099;47.102;15.440;2023-05-22T02:36:24;97142.00;;;12.07;100.00
3668;BME280;24099;47.102;15.440;2023-05-22T02:38:53;97136.84;;;11.99;100.00
3668;BME280;24099;47.102;15.440;2023-05-22T02:41:24;97135.44;;;11.97;100.00
3668;BME280;24099;47.102;15.440;2023-05-22T02:43:52;97136.34;;;12.11;100.00
3668;BME280;24099;47.102;15.440;2023-05-22T02:46:21;97142.94;;;12.00;100.00
3668;BME280;24099;47.102;15.440;2023-05-22T02:48:51;97144.19;;;12.04;100.00
3668;BME280;24099;47.102;15.440;2023-05-22T02:51:19;97142.50;;;12.24;100.00
3668;BME280;24099;47.102;15.440;2023-05-22T02:53:51;97145.16;;;12.24;100.00
3668;BME280;24099;47.102;15.440;2023-05-22T02:56:19;97139.72;;;12.04;100.00
3668;BME280;24099;47.102;15.440;2023-05-22T02:58:49;97133.66;;;11.83;100.00
3668;BME280;24099;47.102;15.440;2023-05-22T03:01:17;97134.50;;;11.83;100.00
3668;BME280;24099;47.102;15.440;2023-05-22T03:03:44;97130.41;;;11.81;100.00
3668;BME280;24099;47.102;15.440;2023-05-22T03:06:14;97139.31;;;11.80;100.00
3668;BME280;24099;47.102;15.440;2023-05-22T03:08:42;97139.72;;;11.77;100.00
3668;BME280;24099;47.102;15.440;2023-05-22T03:11:10;97146.63;;;11.78;100.00
3668;BME280;24099;47.102;15.440;2023-05-22T03:13:38;97140.34;;;11.79;100.00
3668;BME280;24099;47.102;15.440;2023-05-22T03:16:06;97146.66;;;11.84;100.00
3668;BME280;24099;47.102;15.440;2023-05-22T03:18:39;97141.53;;;11.76;100.00
3668;BME280;24099;47.102;15.440;2023-05-22T03:21:06;97147.03;;;11.81;100.00
3668;BME280;24099;47.102;15.440;2023-05-22T03:23:35;97141.44;;;11.69;100.00
3668;BME280;24099;47.102;15.440;2023-05-22T03:26:04;97144.34;;;11.74;100.00
3668;BME280;24099;47.102;15.440;2023-05-22T03:28:35;97154.38;;;11.86;100.00
3668;BME280;24099;47.102;15.440;2023-05-22T03:31:04;97142.47;;;11.90;100.00
3668;BME280;24099;47.102;15.440;2023-05-22T03:33:46;97140.94;;;11.81;100.00
3668;BME280;24099;47.102;15.440;2023-05-22T03:36:13;97138.72;;;11.78;100.00
3668;BME280;24099;47.102;15.440;2023-05-22T03:38:43;97134.53;;;11.68;100.00
3668;BME280;24099;47.102;15.440;2023-05-22T03:41:10;97130.53;;;11.72;100.00
3668;BME280;24099;47.102;15.440;2023-05-22T03:43:38;97130.53;;;11.72;100.00
3668;BME280;24099;47.102;15.440;2023-05-22T03:46:06;97132.66;;;11.84;100.00
3668;BME280;24099;47.102;15.440;2023-05-22T03:48:36;97129.09;;;11.91;100.00
3668;BME280;24099;47.102;15.440;2023-05-22T03:51:05;97133.34;;;11.92;100.00
3668;BME280;24099;47.102;15.440;2023-05-22T03:53:33;97127.50;;;11.97;100.00
3668;BME280;24099;47.102;15.440;2023-05-22T03:56:02;97129.09;;;11.91;100.00
3668;BME280;24099;47.102;15.440;2023-05-22T03:58:30;97125.44;;;11.92;100.00
3668;BME280;24099;47.102;15.440;2023-05-22T04:01:05;97124.53;;;11.79;100.00
3668;BME280;24099;47.102;15.440;2023-05-22T04:03:36;97122.69;;;11.79;100.00
3668;BME280;24099;47.102;15.440;2023-05-22T04:06:04;97128.66;;;11.88;100.00
3668;BME280;24099;47.102;15.440;2023-05-22T04:08:36;97126.06;;;11.94;100.00
3668;BME280;24099;47.102;15.440;2023-05-22T04:11:06;97128.28;;;11.91;100.00
3668;BME280;24099;47.102;15.440;2023-05-22T04:13:33;97130.34;;;11.95;100.00
3668;BME280;24099;47.102;15.440;2023-05-22T04:16:03;97134.00;;;12.01;100.00
3668;BME280;24099;47.102;15.440;2023-05-22T04:18:31;97124.78;;;12.12;100.00
3668;BME280;24099;47.102;15.440;2023-05-22T04:20:59;97134.31;;;12.13;100.00
3668;BME280;24099;47.102;15.440;2023-05-22T04:23:28;97123.56;;;12.14;100.00
3668;BME280;24099;47.102;15.440;2023-05-22T04:25:56;97128.50;;;12.24;100.00
3668;BME280;24099;47.102;15.440;2023-05-22T04:28:34;97133.16;;;12.22;100.00
3668;BME280;24099;47.102;15.440;2023-05-22T04:31:05;97136.59;;;12.22;100.00
3668;BME280;24099;47.102;15.440;2023-05-22T04:33:35;97144.97;;;12.26;100.00
3668;BME280;24099;47.102;15.440;2023-05-22T04:36:07;97133.44;;;12.33;100.00
3668;BME280;24099;47.102;15.440;2023-05-22T04:38:38;97137.09;;;12.32;100.00
3668;BME280;24099;47.102;15.440;2023-05-22T04:41:06;97136.09;;;12.33;100.00
3668;BME280;24099;47.102;15.440;2023-05-22T04:43:37;97140.56;;;12.39;100.00
3668;BME280;24099;47.102;15.440;2023-05-22T04:46:05;97138.56;;;12.41;100.00
3668;BME280;24099;47.102;15.440;2023-05-22T04:48:39;97141.06;;;12.50;100.00
3668;BME280;24099;47.102;15.440;2023-05-22T04:51:08;97149.03;;;12.63;100.00
3668;BME280;24099;47.102;15.440;2023-05-22T04:53:36;97140.16;;;12.70;100.00
3668;BME280;24099;47.102;15.440;2023-05-22T04:56:05;97140.97;;;12.71;100.00
3668;BME280;24099;47.102;15.440;2023-05-22T04:58:33;97147.06;;;12.71;100.00
3668;BME280;24099;47.102;15.440;2023-05-22T05:01:04;97144.03;;;12.81;100.00
3668;BME280;24099;47.102;15.440;2023-05-22T05:03:34;97141.81;;;12.85;100.00
3668;BME280;24099;47.102;15.440;2023-05-22T05:06:02;97140.03;;;12.92;100.00
3668;BME280;24099;47.102;15.440;2023-05-22T05:08:30;97143.13;;;13.02;100.00
3668;BME280;24099;47.102;15.440;2023-05-22T05:10:59;97140.50;;;13.08;100.00
3668;BME280;24099;47.102;15.440;2023-05-22T05:13:30;97140.19;;;13.31;100.00
3668;BME280;24099;47.102;15.440;2023-05-22T05:15:58;97144.69;;;13.37;100.00
3668;BME280;24099;47.102;15.440;2023-05-22T05:18:28;97144.69;;;13.44;100.00
3668;BME280;24099;47.102;15.440;2023-05-22T05:20:56;97152.66;;;13.51;100.00
3668;BME280;24099;47.102;15.440;2023-05-22T05:23:24;97156.13;;;13.58;100.00
3668;BME280;24099;47.102;15.440;2023-05-22T05:25:53;97155.75;;;13.74;100.00
3668;BME280;24099;47.102;15.440;2023-05-22T05:28:21;97151.88;;;13.76;100.00
3668;BME280;24099;47.102;15.440;2023-05-22T05:30:49;97155.72;;;13.80;100.00
3668;BME280;24099;47.102;15.440;2023-05-22T05:33:36;97148.41;;;14.02;100.00
3668;BME280;24099;47.102;15.440;2023-05-22T05:36:08;97151.06;;;14.09;100.00
3668;BME280;24099;47.102;15.440;2023-05-22T05:38:40;97151.03;;;14.22;100.00
3668;BME280;24099;47.102;15.440;2023-05-22T05:41:13;97156.13;;;14.24;100.00
3668;BME280;24099;47.102;15.440;2023-05-22T05:43:41;97151.84;;;14.29;100.00
3668;BME280;24099;47.102;15.440;2023-05-22T05:46:10;97153.28;;;14.45;100.00
3668;BME280;24099;47.102;15.440;2023-05-22T05:48:39;97149.81;;;14.51;100.00
3668;BME280;24099;47.102;15.440;2023-05-22T05:51:06;97146.31;;;14.64;100.00
3668;BME280;24099;47.102;15.440;2023-05-22T05:53:38;97155.28;;;14.69;100.00
3668;BME280;24099;47.102;15.440;2023-05-22T05:56:08;97147.69;;;14.86;100.00
3668;BME280;24099;47.102;15.440;2023-05-22T05:58:37;97157.41;;;14.99;100.00
3668;BME280;24099;47.102;15.440;2023-05-22T06:01:25;97134.56;;;15.42;100.00
3668;BME280;24099;47.102;15.440;2023-05-22T06:03:56;97125.44;;;15.38;100.00
3668;BME280;24099;47.102;15.440;2023-05-22T06:06:31;97120.13;;;15.38;100.00
3668;BME280;24099;47.102;15.440;2023-05-22T06:09:10;97114.28;;;15.55;100.00
3668;BME280;24099;47.102;15.440;2023-05-22T06:11:58;97105.03;;;15.70;100.00
3668;BME280;24099;47.102;15.440;2023-05-22T06:14:32;97092.94;;;15.99;100.00
3668;BME280;24099;47.102;15.440;2023-05-22T06:16:59;97074.88;;;16.08;100.00
3668;BME280;24099;47.102;15.440;2023-05-22T06:19:29;97069.22;;;16.23;100.00
3668;BME280;24099;47.102;15.440;2023-05-22T06:21:57;97068.06;;;16.37;100.00
3668;BME280;24099;47.102;15.440;2023-05-22T06:24:24;97048.06;;;16.52;100.00
3668;BME280;24099;47.102;15.440;2023-05-22T06:26:55;97040.59;;;16.79;100.00
3668;BME280;24099;47.102;15.440;2023-05-22T06:29:23;97019.94;;;17.11;100.00
3668;BME280;24099;47.102;15.440;2023-05-22T06:31:55;97004.03;;;17.35;100.00
3668;BME280;24099;47.102;15.440;2023-05-22T06:34:23;97003.53;;;17.26;100.00
3668;BME280;24099;47.102;15.440;2023-05-22T06:36:54;97016.53;;;17.04;100.00
3668;BME280;24099;47.102;15.440;2023-05-22T06:39:26;97025.69;;;17.08;100.00
3668;BME280;24099;47.102;15.440;2023-05-22T06:42:09;97047.47;;;17.17;100.00
3668;BME280;24099;47.102;15.440;2023-05-22T06:44:57;97046.47;;;17.30;100.00
3668;BME280;24099;47.102;15.440;2023-05-22T06:47:35;97051.47;;;17.38;100.00
3668;BME280;24099;47.102;15.440;2023-05-22T06:50:09;97034.38;;;17.57;100.00
3668;BME280;24099;47.102;15.440;2023-05-22T06:52:42;97036.84;;;17.70;100.00
3668;BME280;24099;47.102;15.440;2023-05-22T06:55:13;97021.81;;;17.87;100.00
3668;BME280;24099;47.102;15.440;2023-05-22T06:57:54;97042.75;;;17.84;100.00
3668;BME280;24099;47.102;15.440;2023-05-22T07:00:25;97037.31;;;18.14;100.00
3668;BME280;24099;47.102;15.440;2023-05-22T07:03:04;97029.66;;;18.29;100.00
3668;BME280;24099;47.102;15.440;2023-05-22T07:05:43;97016.56;;;18.28;100.00
3668;BME280;24099;47.102;15.440;2023-05-22T07:08:13;97004.28;;;18.38;100.00
3668;BME280;24099;47.102;15.440;2023-05-22T07:10:41;97005.06;;;18.50;100.00
3668;BME280;24099;47.102;15.440;2023-05-22T07:13:09;96978.06;;;18.87;100.00
3668;BME280;24099;47.102;15.440;2023-05-22T07:15:42;96985.38;;;18.80;100.00
3668;BME280;24099;47.102;15.440;2023-05-22T07:18:10;96996.53;;;18.77;100.00
3668;BME280;24099;47.102;15.440;2023-05-22T07:20:40;96991.03;;;18.83;100.00
3668;BME280;24099;47.102;15.440;2023-05-22T07:23:16;96970.59;;;19.17;100.00
3668;BME280;24099;47.102;15.440;2023-05-22T07:25:44;96962.19;;;19.25;100.00
3668;BME280;24099;47.102;15.440;2023-05-22T07:28:14;96957.66;;;19.43;100.00
3668;BME280;24099;47.102;15.440;2023-05-22T07:30:52;96942.63;;;19.53;100.00
3668;BME280;24099;47.102;15.440;2023-05-22T07:33:20;96949.00;;;19.69;100.00
3668;BME280;24099;47.102;15.440;2023-05-22T07:35:48;96948.41;;;19.84;100.00
3668;BME280;24099;47.102;15.440;2023-05-22T07:38:19;96947.13;;;19.86;100.00
3668;BME280;24099;47.102;15.440;2023-05-22T07:40:55;96963.56;;;19.78;100.00
3668;BME280;24099;47.102;15.440;2023-05-22T07:43:30;96964.69;;;19.82;100.00
3668;BME280;24099;47.102;15.440;2023-05-22T07:45:59;96938.50;;;20.23;100.00
3668;BME280;24099;47.102;15.440;2023-05-22T07:48:31;96939.53;;;20.17;100.00
3668;BME280;24099;47.102;15.440;2023-05-22T07:51:00;96943.91;;;20.28;100.00
3668;BME280;24099;47.102;15.440;2023-05-22T07:53:30;96940.03;;;20.57;100.00
3668;BME280;24099;47.102;15.440;2023-05-22T07:56:01;96945.88;;;20.54;100.00
3668;BME280;24099;47.102;15.440;2023-05-22T07:58:31;96945.88;;;20.54;100.00
3668;BME280;24099;47.102;15.440;2023-05-22T08:01:00;96939.63;;;20.71;100.00
3668;BME280;24099;47.102;15.440;2023-05-22T08:03:31;96931.84;;;20.96;100.00
3668;BME280;24099;47.102;15.440;2023-05-22T08:06:02;96941.78;;;21.01;100.00
3668;BME280;24099;47.102;15.440;2023-05-22T08:08:32;96924.91;;;21.27;100.00
3668;BME280;24099;47.102;15.440;2023-05-22T08:10:59;96933.06;;;21.42;100.00
3668;BME280;24099;47.102;15.440;2023-05-22T08:13:27;96926.88;;;21.42;100.00
3668;BME280;24099;47.102;15.440;2023-05-22T08:15:56;96929.00;;;21.40;100.00
3668;BME280;24099;47.102;15.440;2023-05-22T08:18:24;96921.53;;;21.42;100.00
3668;BME280;24099;47.102;15.440;2023-05-22T08:20:55;96923.00;;;21.59;100.00
3668;BME280;24099;47.102;15.440;2023-05-22T08:23:24;96912.66;;;21.73;100.00
3668;BME280;24099;47.102;15.440;2023-05-22T08:25:53;96911.59;;;21.79;100.00
3668;BME280;24099;47.102;15.440;2023-05-22T08:28:20;96909.81;;;21.95;100.00
3668;BME280;24099;47.102;15.440;2023-05-22T08:30:48;96905.25;;;21.90;100.00
3668;BME280;24099;47.102;15.440;2023-05-22T08:33:16;96904.59;;;22.15;100.00
3668;BME280;24099;47.102;15.440;2023-05-22T08:35:51;96899.03;;;22.42;100.00
3668;BME280;24099;47.102;15.440;2023-05-22T08:38:18;96907.09;;;22.37;100.00
3668;BME280;24099;47.102;15.440;2023-05-22T08:40:47;96905.25;;;22.53;100.00
3668;BME280;24099;47.102;15.440;2023-05-22T08:43:19;96900.69;;;22.53;100.00
3668;BME280;24099;47.102;15.440;2023-05-22T08:45:51;96899.63;;;22.54;100.00
3668;BME280;24099;47.102;15.440;2023-05-22T08:48:23;96895.91;;;22.71;100.00
3668;BME280;24099;47.102;15.440;2023-05-22T08:50:57;96895.16;;;22.90;100.00
3668;BME280;24099;47.102;15.440;2023-05-22T08:53:29;96889.50;;;23.07;100.00
3668;BME280;24099;47.102;15.440;2023-05-22T08:56:11;96901.31;;;23.26;100.00
3668;BME280;24099;47.102;15.440;2023-05-22T08:58:41;96893.81;;;23.28;100.00
3668;BME280;24099;47.102;15.440;2023-05-22T09:01:11;96897.03;;;23.35;100.00
3668;BME280;24099;47.102;15.440;2023-05-22T09:03:40;96894.06;;;23.27;98.56
3668;BME280;24099;47.102;15.440;2023-05-22T09:06:08;96889.50;;;23.43;97.03
3668;BME280;24099;47.102;15.440;2023-05-22T09:08:38;96890.59;;;23.57;93.69
3668;BME280;24099;47.102;15.440;2023-05-22T09:11:08;96888.88;;;23.91;91.44
3668;BME280;24099;47.102;15.440;2023-05-22T09:13:39;96888.66;;;23.78;90.87
3668;BME280;24099;47.102;15.440;2023-05-22T09:16:11;96887.34;;;23.75;88.32
3668;BME280;24099;47.102;15.440;2023-05-22T09:18:40;96893.06;;;24.28;92.68
3668;BME280;24099;47.102;15.440;2023-05-22T09:21:09;96888.00;;;24.16;90.99
3668;BME280;24099;47.102;15.440;2023-05-22T09:23:38;96879.97;;;24.06;90.04
3668;BME280;24099;47.102;15.440;2023-05-22T09:26:08;96890.44;;;24.08;90.29
3668;BME280;24099;47.102;15.440;2023-05-22T09:28:47;96880.91;;;24.41;89.11
3668;BME280;24099;47.102;15.440;2023-05-22T09:31:14;96888.94;;;24.46;92.78
3668;BME280;24099;47.102;15.440;2023-05-22T09:33:43;96882.91;;;24.15;87.53
3668;BME280;24099;47.102;15.440;2023-05-22T09:36:12;96885.06;;;24.02;89.78
3668;BME280;24099;47.102;15.440;2023-05-22T09:38:40;96883.03;;;24.49;90.45
3668;BME280;24099;47.102;15.440;2023-05-22T09:41:11;96877.25;;;24.65;87.27
3668;BME280;24099;47.102;15.440;2023-05-22T09:43:49;96877.91;;;24.96;84.29
3668;BME280;24099;47.102;15.440;2023-05-22T09:46:23;96882.09;;;24.68;90.28
3668;BME280;24099;47.102;15.440;2023-05-22T09:48:54;96884.47;;;24.26;90.03
3668;BME280;24099;47.102;15.440;2023-05-22T09:51:22;96876.88;;;24.38;88.31
3668;BME280;24099;47.102;15.440;2023-05-22T09:53:50;96876.19;;;24.66;81.96
3668;BME280;24099;47.102;15.440;2023-05-22T09:56:26;96878.47;;;24.39;85.70
3668;BME280;24099;47.102;15.440;2023-05-22T09:58:56;96876.25;;;24.56;89.07
3668;BME280;24099;47.102;15.440;2023-05-22T10:01:26;96880.25;;;24.59;86.88
3668;BME280;24099;47.102;15.440;2023-05-22T10:03:57;96879.97;;;24.06;84.89
3668;BME280;24099;47.102;15.440;2023-05-22T10:06:26;96875.59;;;24.30;84.01
3668;BME280;24099;47.102;15.440;2023-05-22T10:08:58;96877.00;;;24.02;86.00
3668;BME280;24099;47.102;15.440;2023-05-22T10:11:31;96863.41;;;24.43;85.48
3668;BME280;24099;47.102;15.440;2023-05-22T10:14:02;96868.22;;;24.95;85.89
3668;BME280;24099;47.102;15.440;2023-05-22T10:16:40;96867.84;;;24.68;87.82
3668;BME280;24099;47.102;15.440;2023-05-22T10:19:13;96867.16;;;24.86;83.17
3668;BME280;24099;47.102;15.440;2023-05-22T10:21:41;96866.31;;;25.30;87.06
3668;BME280;24099;47.102;15.440;2023-05-22T10:24:13;96867.66;;;24.93;87.40
3668;BME280;24099;47.102;15.440;2023-05-22T10:26:46;96859.16;;;25.44;80.90
3668;BME280;24099;47.102;15.440;2023-05-22T10:29:21;96864.72;;;24.95;79.69
3668;BME280;24099;47.102;15.440;2023-05-22T10:31:57;96860.94;;;24.96;82.17
3668;BME280;24099;47.102;15.440;2023-05-22T10:34:42;96859.47;;;24.69;83.87
3668;BME280;24099;47.102;15.440;2023-05-22T10:37:30;96862.03;;;24.90;84.93
3668;BME280;24099;47.102;15.440;2023-05-22T10:40:06;96850.34;;;24.65;85.12
3668;BME280;24099;47.102;15.440;2023-05-22T10:42:37;96850.31;;;25.38;82.13
3668;BME280;24099;47.102;15.440;2023-05-22T10:45:09;96848.00;;;24.98;82.74
3668;BME280;24099;47.102;15.440;2023-05-22T10:47:49;96854.97;;;24.99;85.74
3668;BME280;24099;47.102;15.440;2023-05-22T10:50:29;96851.47;;;25.32;85.43
3668;BME280;24099;47.102;15.440;2023-05-22T10:53:19;96849.66;;;25.52;85.78
3668;BME280;24099;47.102;15.440;2023-05-22T10:55:47;96846.91;;;24.94;84.78
3668;BME280;24099;47.102;15.440;2023-05-22T10:58:27;96850.72;;;24.88;87.00
3668;BME280;24099;47.102;15.440;2023-05-22T11:01:15;96846.69;;;24.51;83.04
3668;BME280;24099;47.102;15.440;2023-05-22T11:03:57;96846.16;;;24.49;86.05
3668;BME280;24099;47.102;15.440;2023-05-22T11:06:32;96847.84;;;24.35;96.51
3668;BME280;24099;47.102;15.440;2023-05-22T11:09:17;96840.78;;;24.49;98.77
3668;BME280;24099;47.102;15.440;2023-05-22T11:11:46;96839.53;;;24.31;97.57
3668;BME280;24099;47.102;15.440;2023-05-22T11:14:18;96839.31;;;24.18;96.20
3668;BME280;24099;47.102;15.440;2023-05-22T11:16:47;96837.44;;;24.13;100.00
3668;BME280;24099;47.102;15.440;2023-05-22T11:19:15;96838.44;;;24.32;100.00
3668;BME280;24099;47.102;15.440;2023-05-22T11:21:45;96836.63;;;24.18;100.00
3668;BME280;24099;47.102;15.440;2023-05-22T11:24:16;96834.22;;;24.60;100.00
3668;BME280;24099;47.102;15.440;2023-05-22T11:26:44;96828.94;;;23.96;100.00
3668;BME280;24099;47.102;15.440;2023-05-22T11:29:27;96819.97;;;24.16;100.00
3668;BME280;24099;47.102;15.440;2023-05-22T11:31:57;96822.41;;;24.02;96.71
3668;BME280;24099;47.102;15.440;2023-05-22T11:34:25;96816.38;;;23.66;100.00
3668;BME280;24099;47.102;15.440;2023-05-22T11:36:59;96813.63;;;23.86;100.00
3668;BME280;24099;47.102;15.440;2023-05-22T11:39:27;96801.72;;;24.57;100.00
3668;BME280;24099;47.102;15.440;2023-05-22T11:41:55;96801.34;;;25.31;81.85
3668;BME280;24099;47.102;15.440;2023-05-22T11:44:22;96793.47;;;25.64;85.02
3668;BME280;24099;47.102;15.440;2023-05-22T11:46:53;96802.31;;;25.93;85.94
3668;BME280;24099;47.102;15.440;2023-05-22T11:49:23;96793.28;;;25.31;79.01
3668;BME280;24099;47.102;15.440;2023-05-22T11:51:52;96796.16;;;25.64;74.86
3668;BME280;24099;47.102;15.440;2023-05-22T11:54:20;96788.44;;;25.28;73.20
3668;BME280;24099;47.102;15.440;2023-05-22T11:56:48;96785.34;;;25.69;79.12
3668;BME280;24099;47.102;15.440;2023-05-22T11:59:20;96780.56;;;25.37;78.77
3668;BME280;24099;47.102;15.440;2023-05-22T12:01:49;96784.91;;;25.57;76.36
3668;BME280;24099;47.102;15.440;2023-05-22T12:04:20;96783.03;;;25.57;75.84
3668;BME280;24099;47.102;15.440;2023-05-22T12:06:54;96776.22;;;26.07;78.89
3668;BME280;24099;47.102;15.440;2023-05-22T12:09:25;96772.75;;;26.45;80.18
3668;BME280;24099;47.102;15.440;2023-05-22T12:11:54;96772.00;;;26.90;78.89
3668;BME280;24099;47.102;15.440;2023-05-22T12:14:25;96765.59;;;26.35;76.72
3668;BME280;24099;47.102;15.440;2023-05-22T12:16:54;96765.50;;;26.59;76.22
3668;BME280;24099;47.102;15.440;2023-05-22T12:19:23;96769.78;;;27.11;71.59
3668;BME280;24099;47.102;15.440;2023-05-22T12:22:07;96776.56;;;26.76;74.18
3668;BME280;24099;47.102;15.440;2023-05-22T12:24:40;96773.44;;;27.61;71.54
3668;BME280;24099;47.102;15.440;2023-05-22T12:27:15;96774.47;;;27.65;68.05
3668;BME280;24099;47.102;15.440;2023-05-22T12:29:42;96777.06;;;26.78;71.10
3668;BME280;24099;47.102;15.440;2023-05-22T12:32:11;96779.94;;;25.69;74.48
3668;BME280;24099;47.102;15.440;2023-05-22T12:34:45;96765.00;;;26.57;71.50
3668;BME280;24099;47.102;15.440;2023-05-22T12:37:21;96765.47;;;26.96;65.38
3668;BME280;24099;47.102;15.440;2023-05-22T12:39:55;96766.00;;;27.26;63.76
3668;BME280;24099;47.102;15.440;2023-05-22T12:42:26;96767.31;;;27.42;64.12
3668;BME280;24099;47.102;15.440;2023-05-22T12:44:57;96765.72;;;27.41;66.59
3668;BME280;24099;47.102;15.440;2023-05-22T12:47:31;96765.69;;;28.23;64.14
3668;BME280;24099;47.102;15.440;2023-05-22T12:50:13;96760.22;;;27.87;62.52
3668;BME280;24099;47.102;15.440;2023-05-22T12:52:45;96763.63;;;27.93;59.16
3668;BME280;24099;47.102;15.440;2023-05-22T12:55:13;96771.22;;;26.90;62.37
3668;BME280;24099;47.102;15.440;2023-05-22T12:57:42;96778.00;;;26.55;63.69
3668;BME280;24099;47.102;15.440;2023-05-22T13:00:11;96769.44;;;26.66;64.27
3668;BME280;24099;47.102;15.440;2023-05-22T13:02:39;96770.44;;;27.49;60.59
3668;BME280;24099;47.102;15.440;2023-05-22T13:05:10;96756.63;;;27.64;58.60
3668;BME280;24099;47.102;15.440;2023-05-22T13:07:47;96765.72;;;27.96;60.24
3668;BME280;24099;47.102;15.440;2023-05-22T13:10:18;96760.81;;;27.29;63.58
3668;BME280;24099;47.102;15.440;2023-05-22T13:12:46;96759.38;;;28.00;64.06
3668;BME280;24099;47.102;15.440;2023-05-22T13:15:16;96751.91;;;27.84;64.52